Okolona, Kentucky
Current Conditions -  °F | °C
As of 7:56 PM on Tuesday 25 Nov 2014 (Local Time) from KSDF Reporting Station
Overcast Overcast  
Wind Chill: 33°   Ceiling: 18000
Heat Index: 40°   Visibility: 10mi
Dew Point: 28°   Wind: 13mph
Humidity: 63%   Direction: 330°NNW
Pressure: 30.17"   Gusts: NA
Location:  38.14°N, 85.69°W
Report Text: KSDF 260056Z 33011KT 10SM BKN180 OVC250 04/M02 A3017 RMK AO2 SLP219 T00441022
Loading
Personal Weather Stations






























Interactive Weather Map New forecast layout! Learn more

10-Day Weather Forecast

Advertisements
Track Severe Weather on mobile